createdAt,value
2019-03-03T00:00:01.802Z,59.37
2019-03-03T00:02:29.270Z,61.43
2019-03-03T00:04:56.753Z,59.30
2019-03-03T00:07:24.159Z,61.83
2019-03-03T00:09:51.758Z,59.60
2019-03-03T00:12:19.077Z,57.77
2019-03-03T00:14:46.511Z,59.03
2019-03-03T00:17:14.039Z,58.60
2019-03-03T00:19:41.506Z,58.70
2019-03-03T00:22:08.958Z,62.30
2019-03-03T00:24:36.362Z,65.50
2019-03-03T00:27:03.724Z,62.47
2019-03-03T00:29:31.217Z,62.87
2019-03-03T00:31:58.575Z,63.40
2019-03-03T00:34:25.924Z,62.73
2019-03-03T00:37:12.892Z,62.17
2019-03-03T00:39:41.908Z,60.30
2019-03-03T00:42:11.183Z,61.97
2019-03-03T00:44:42.782Z,62.97
2019-03-03T00:47:27.052Z,61.83
2019-03-03T00:50:12.691Z,62.03
2019-03-03T00:52:41.693Z,60.33
2019-03-03T00:55:10.682Z,59.33
2019-03-03T00:57:54.560Z,58.97
2019-03-03T01:00:25.149Z,60.37
2019-03-03T01:02:54.138Z,61.40
2019-03-03T01:05:23.140Z,58.40
2019-03-03T01:07:52.172Z,59.43
2019-03-03T01:10:23.937Z,59.07
2019-03-03T01:12:52.921Z,58.13
2019-03-03T01:15:27.798Z,58.37
2019-03-03T01:17:59.757Z,59.17
2019-03-03T01:20:31.636Z,59.60
2019-03-03T01:23:00.612Z,57.47
2019-03-03T01:25:27.957Z,59.20
2019-03-03T01:27:55.305Z,55.70
2019-03-03T01:30:22.805Z,56.67
2019-03-03T01:32:50.183Z,56.07
2019-03-03T01:35:17.579Z,57.40
2019-03-03T01:37:44.963Z,57.27
2019-03-03T01:40:12.291Z,57.70
2019-03-03T01:42:39.750Z,60.03
2019-03-03T01:45:11.288Z,58.70
2019-03-03T01:47:38.655Z,56.13
2019-03-03T01:50:07.778Z,54.20
2019-03-03T01:52:35.121Z,53.77
2019-03-03T01:55:02.616Z,52.17
2019-03-03T01:57:30.010Z,48.03
2019-03-03T01:59:57.371Z,44.83
2019-03-03T02:02:24.777Z,44.77
2019-03-03T02:04:52.124Z,41.00
2019-03-03T02:07:19.451Z,39.37
2019-03-03T02:09:47.150Z,40.97
2019-03-03T02:12:14.493Z,38.87
2019-03-03T02:14:42.009Z,37.07
2019-03-03T02:17:09.935Z,35.27
2019-03-03T02:19:37.305Z,36.87
2019-03-03T02:22:04.791Z,37.63
2019-03-03T02:24:32.168Z,35.30
2019-03-03T02:26:59.571Z,35.47
2019-03-03T02:29:27.037Z,32.40
2019-03-03T02:31:54.525Z,33.43
2019-03-03T02:34:21.855Z,35.30
2019-03-03T02:36:49.340Z,32.60
2019-03-03T02:39:16.743Z,31.40
2019-03-03T02:41:44.145Z,31.63
2019-03-03T02:44:11.494Z,30.43
2019-03-03T02:46:38.899Z,30.93
2019-03-03T02:49:06.307Z,30.93
2019-03-03T02:51:33.765Z,29.07
2019-03-03T02:54:01.202Z,32.27
2019-03-03T02:56:28.626Z,36.80
2019-03-03T02:58:55.965Z,37.47
2019-03-03T03:01:28.102Z,38.33
2019-03-03T03:03:55.434Z,38.83
2019-03-03T03:06:24.482Z,37.33
2019-03-03T03:09:08.606Z,36.10
2019-03-03T03:14:21.214Z,35.73
2019-03-03T03:17:02.479Z,36.63
2019-03-03T03:19:31.452Z,36.73
2019-03-03T03:22:06.239Z,35.53
2019-03-03T03:24:47.087Z,34.20
2019-03-03T03:27:22.018Z,32.47
2019-03-03T03:30:07.518Z,32.27
2019-03-03T03:32:39.473Z,31.53
2019-03-03T03:35:17.782Z,31.00
2019-03-03T03:38:01.902Z,31.30
2019-03-03T03:40:33.713Z,32.67
2019-03-03T03:43:18.780Z,32.90
2019-03-03T03:46:02.866Z,30.30
2019-03-03T03:48:48.002Z,29.93
2019-03-03T03:51:26.058Z,28.93
2019-03-03T03:53:55.049Z,30.10
2019-03-03T03:56:26.849Z,30.93
2019-03-03T03:58:55.863Z,30.33
2019-03-03T04:01:27.625Z,29.10
2019-03-03T04:03:56.661Z,29.10
2019-03-03T04:06:37.951Z,30.43
2019-03-03T04:09:10.733Z,26.27
2019-03-03T04:11:39.757Z,28.50
2019-03-03T04:14:08.812Z,29.77
2019-03-03T04:16:37.798Z,27.37
2019-03-03T04:19:09.515Z,28.07
2019-03-03T04:21:38.894Z,28.57
2019-03-03T04:24:25.830Z,27.97
2019-03-03T04:27:00.666Z,28.43
2019-03-03T04:29:29.674Z,28.77
2019-03-03T04:31:58.760Z,27.50
2019-03-03T04:34:27.748Z,27.30
2019-03-03T04:37:13.273Z,27.87
2019-03-03T04:39:42.268Z,28.63
2019-03-03T04:42:16.915Z,26.90
2019-03-03T04:44:45.907Z,28.07
2019-03-03T04:47:17.956Z,27.60
2019-03-03T04:49:49.824Z,28.00
2019-03-03T04:52:21.594Z,27.07
2019-03-03T04:55:06.882Z,26.87
2019-03-03T04:57:38.661Z,27.80
2019-03-03T05:00:14.816Z,29.03
2019-03-03T05:02:43.793Z,28.87
2019-03-03T05:05:12.827Z,28.10
2019-03-03T05:07:53.971Z,27.97
2019-03-03T05:10:32.337Z,30.33
2019-03-03T05:13:04.210Z,32.43
2019-03-03T05:15:33.332Z,32.57
2019-03-03T05:18:08.038Z,35.70
2019-03-03T05:20:48.772Z,32.43
2019-03-03T05:23:16.192Z,28.73
2019-03-03T05:25:43.586Z,29.10
2019-03-03T05:28:11.008Z,27.13
2019-03-03T05:30:38.440Z,29.07
2019-03-03T05:33:05.972Z,29.43
2019-03-03T05:35:33.397Z,29.77
2019-03-03T05:38:00.824Z,26.80
2019-03-03T05:40:28.351Z,27.17
2019-03-03T05:42:55.753Z,26.47
2019-03-03T05:45:23.083Z,25.57
2019-03-03T05:47:50.461Z,25.03
2019-03-03T05:50:18.094Z,25.33
2019-03-03T05:52:45.474Z,24.17
2019-03-03T05:55:12.952Z,25.67
2019-03-03T05:57:40.383Z,25.80
2019-03-03T06:00:12.453Z,29.80
2019-03-03T06:02:39.813Z,29.60
2019-03-03T06:05:07.211Z,33.03
2019-03-03T06:07:34.635Z,32.07
2019-03-03T06:10:02.076Z,35.33
2019-03-03T06:12:29.489Z,33.43
2019-03-03T06:14:56.932Z,32.50
2019-03-03T06:17:24.274Z,31.03
2019-03-03T06:19:51.770Z,31.27
2019-03-03T06:22:21.140Z,30.73
2019-03-03T06:24:48.619Z,31.40
2019-03-03T06:27:23.953Z,33.13
2019-03-03T06:29:50.989Z,31.27
2019-03-03T06:32:19.553Z,34.83
2019-03-03T06:34:50.301Z,33.10
2019-03-03T06:37:17.656Z,32.83
2019-03-03T06:39:45.039Z,33.30
2019-03-03T06:42:12.493Z,35.33
2019-03-03T06:44:39.849Z,36.93
2019-03-03T06:47:07.221Z,34.30
2019-03-03T06:49:34.663Z,35.47
2019-03-03T06:52:02.194Z,35.43
2019-03-03T06:54:29.625Z,34.40
2019-03-03T06:56:56.964Z,35.63
2019-03-03T06:59:24.447Z,35.93
2019-03-03T07:01:52.009Z,36.50
2019-03-03T07:04:19.498Z,35.10
2019-03-03T07:06:46.998Z,33.77
2019-03-03T07:09:14.554Z,33.63
2019-03-03T07:11:41.911Z,32.53
2019-03-03T07:14:09.328Z,33.50
2019-03-03T07:16:36.759Z,30.93
2019-03-03T07:19:04.247Z,31.00
2019-03-03T07:21:31.798Z,30.53
2019-03-03T07:23:59.264Z,30.60
2019-03-03T07:26:26.965Z,28.93
2019-03-03T07:28:54.470Z,31.10
2019-03-03T07:31:21.911Z,27.97
2019-03-03T07:33:50.701Z,29.23
2019-03-03T07:36:18.208Z,28.77
2019-03-03T07:38:45.656Z,28.83
2019-03-03T07:41:13.172Z,28.47
2019-03-03T07:43:40.857Z,31.60
2019-03-03T07:46:08.238Z,29.33
2019-03-03T07:48:38.371Z,28.90
2019-03-03T07:51:05.823Z,27.50
2019-03-03T07:53:33.367Z,29.07
2019-03-03T07:56:00.781Z,27.33
2019-03-03T07:58:28.344Z,26.63
2019-03-03T08:00:55.918Z,27.33
2019-03-03T08:03:23.355Z,28.97
2019-03-03T08:05:50.777Z,27.53
2019-03-03T08:08:18.587Z,26.33
2019-03-03T08:10:45.995Z,28.20
2019-03-03T08:13:13.478Z,29.07
2019-03-03T08:15:40.907Z,27.90
2019-03-03T08:18:08.449Z,26.67
2019-03-03T08:20:36.283Z,26.07
2019-03-03T08:23:04.313Z,26.63
2019-03-03T08:25:31.702Z,25.03
2019-03-03T08:28:01.895Z,24.60
2019-03-03T08:30:30.968Z,24.00
2019-03-03T08:32:59.605Z,26.40
2019-03-03T08:35:28.443Z,27.30
2019-03-03T08:37:55.863Z,26.27
2019-03-03T08:40:23.272Z,26.43
2019-03-03T08:42:55.292Z,26.33
2019-03-03T08:45:27.079Z,24.73
2019-03-03T08:47:58.591Z,23.77
2019-03-03T08:50:30.430Z,24.73
2019-03-03T08:53:05.494Z,25.47
2019-03-03T08:55:34.602Z,24.50
2019-03-03T08:58:15.564Z,25.07
2019-03-03T09:00:44.934Z,25.33
2019-03-03T09:03:13.884Z,25.20
2019-03-03T09:05:48.702Z,26.03
2019-03-03T09:08:20.445Z,27.03
2019-03-03T09:10:52.343Z,25.33
2019-03-03T09:13:30.728Z,25.50
2019-03-03T09:16:16.343Z,25.00
2019-03-03T09:18:47.872Z,22.40
2019-03-03T09:21:33.417Z,22.90
2019-03-03T09:24:02.652Z,22.87
2019-03-03T09:26:34.859Z,22.07
2019-03-03T09:29:16.210Z,22.90
2019-03-03T09:31:45.194Z,22.27
2019-03-03T09:34:30.786Z,24.23
2019-03-03T09:37:05.662Z,22.90
2019-03-03T09:39:34.712Z,23.33
2019-03-03T09:42:06.898Z,21.80
2019-03-03T09:44:52.767Z,21.83
2019-03-03T09:47:24.683Z,20.03
2019-03-03T09:50:02.308Z,21.20
2019-03-03T09:52:31.369Z,21.73
2019-03-03T09:55:00.424Z,21.50
2019-03-03T09:57:39.432Z,20.97
2019-03-03T10:00:12.155Z,21.90
2019-03-03T10:02:41.209Z,20.83
2019-03-03T10:05:13.352Z,19.83
2019-03-03T10:07:42.464Z,19.97
2019-03-03T10:10:21.266Z,20.40
2019-03-03T10:13:08.358Z,21.50
2019-03-03T10:15:43.391Z,20.93
2019-03-03T10:18:24.574Z,22.50
2019-03-03T10:21:11.882Z,21.93
2019-03-03T10:23:50.050Z,24.17
2019-03-03T10:26:21.850Z,22.07
2019-03-03T10:28:51.018Z,22.80
2019-03-03T10:31:20.124Z,20.90
2019-03-03T10:33:52.350Z,21.40
2019-03-03T10:36:27.398Z,22.37
2019-03-03T10:39:07.258Z,21.30
2019-03-03T10:41:39.434Z,20.57
2019-03-03T10:44:11.270Z,21.13
2019-03-03T10:46:44.568Z,19.00
2019-03-03T10:49:25.797Z,21.00
2019-03-03T10:51:54.896Z,19.80
2019-03-03T10:54:24.022Z,19.40
2019-03-03T10:57:15.697Z,19.67
2019-03-03T10:59:44.926Z,18.13
2019-03-03T11:02:16.841Z,18.60
2019-03-03T11:04:45.779Z,18.83
2019-03-03T11:07:31.443Z,19.43
2019-03-03T11:10:08.002Z,19.20
2019-03-03T11:12:36.931Z,19.30
2019-03-03T11:15:24.331Z,17.37
2019-03-03T11:17:59.226Z,16.60
2019-03-03T11:20:31.628Z,15.97
2019-03-03T11:23:06.594Z,15.40
2019-03-03T11:25:50.627Z,15.00
2019-03-03T11:28:39.474Z,14.67
2019-03-03T11:31:08.799Z,13.03
2019-03-03T11:33:44.315Z,15.70
2019-03-03T11:36:20.078Z,14.90
2019-03-03T11:39:00.544Z,14.53
2019-03-03T11:41:29.553Z,15.43
2019-03-03T11:43:58.608Z,15.27
2019-03-03T11:46:44.851Z,16.07
2019-03-03T11:49:20.037Z,15.17
2019-03-03T11:51:49.125Z,17.87
2019-03-03T11:54:21.521Z,19.03
2019-03-03T11:56:51.992Z,19.53
2019-03-03T11:59:41.185Z,20.37
2019-03-03T12:02:14.712Z,17.87
2019-03-03T12:04:56.570Z,17.13
2019-03-03T12:07:25.158Z,18.43
2019-03-03T12:10:11.179Z,20.50
2019-03-03T12:13:08.864Z,16.87
2019-03-03T12:15:53.577Z,15.17
2019-03-03T12:18:41.931Z,16.80
2019-03-03T12:21:17.224Z,18.90
2019-03-03T12:24:06.881Z,17.70
2019-03-03T12:29:48.020Z,18.73
2019-03-03T12:32:30.819Z,19.67
2019-03-03T12:35:00.022Z,21.17
2019-03-03T12:37:44.619Z,19.47
2019-03-03T12:40:31.815Z,18.17
2019-03-03T12:43:13.037Z,17.83
2019-03-03T12:45:51.151Z,17.03
2019-03-03T12:48:20.162Z,15.23
2019-03-03T12:50:52.071Z,14.53
2019-03-03T12:53:27.427Z,13.33
2019-03-03T12:55:56.440Z,12.00
2019-03-03T12:58:31.537Z,11.40
2019-03-03T13:01:00.673Z,11.97
2019-03-03T13:03:32.766Z,12.13
2019-03-03T13:06:01.794Z,11.77
2019-03-03T13:08:42.777Z,11.30
2019-03-03T13:11:17.639Z,11.67
2019-03-03T13:13:55.288Z,13.00
2019-03-03T13:16:29.541Z,13.33
2019-03-03T13:19:13.232Z,14.80
2019-03-03T13:21:45.115Z,15.93
2019-03-03T13:24:22.872Z,14.97
2019-03-03T13:26:53.573Z,15.10
2019-03-03T13:29:34.649Z,15.23
2019-03-03T13:32:05.650Z,16.90
2019-03-03T13:34:37.517Z,16.40
2019-03-03T13:37:24.758Z,17.40
2019-03-03T13:40:09.924Z,16.97
2019-03-03T13:42:48.673Z,18.27
2019-03-03T13:45:18.303Z,19.10
2019-03-03T13:47:45.786Z,17.73
2019-03-03T13:50:14.471Z,19.10
2019-03-03T13:52:43.076Z,19.13
2019-03-03T13:55:11.143Z,22.20
2019-03-03T13:57:38.578Z,21.83
2019-03-03T14:00:10.781Z,16.97
2019-03-03T14:02:38.202Z,14.77
2019-03-03T14:05:06.609Z,19.10
2019-03-03T14:07:34.241Z,25.27
2019-03-03T14:10:04.834Z,21.07
2019-03-03T14:12:32.405Z,16.30
2019-03-03T14:14:59.796Z,15.33
2019-03-03T14:17:27.360Z,17.00
2019-03-03T14:19:54.958Z,16.33
2019-03-03T14:22:22.471Z,15.73
2019-03-03T14:24:51.766Z,14.33
2019-03-03T14:27:19.231Z,13.13
2019-03-03T14:29:46.699Z,13.33
2019-03-03T14:32:14.210Z,13.30
2019-03-03T14:34:48.817Z,12.97
2019-03-03T14:37:16.671Z,13.73
2019-03-03T14:39:44.194Z,13.33
2019-03-03T14:42:11.642Z,14.67
2019-03-03T14:44:39.307Z,14.43
2019-03-03T14:47:06.773Z,13.77
2019-03-03T14:49:34.323Z,15.43
2019-03-03T14:52:01.969Z,15.13
2019-03-03T14:54:29.456Z,14.70
2019-03-03T14:56:58.101Z,15.10
2019-03-03T14:59:25.538Z,15.80
2019-03-03T15:01:52.988Z,13.70
2019-03-03T15:04:20.450Z,14.47
2019-03-03T15:06:49.609Z,14.70
2019-03-03T15:09:22.184Z,14.97
2019-03-03T15:11:49.916Z,14.43
2019-03-03T15:14:19.314Z,15.30
2019-03-03T15:16:46.702Z,12.60
2019-03-03T15:19:14.169Z,14.47
2019-03-03T15:21:41.603Z,13.73
2019-03-03T15:24:09.060Z,13.10
2019-03-03T15:26:36.627Z,12.77
2019-03-03T15:29:04.130Z,13.47
2019-03-03T15:31:37.791Z,13.40
2019-03-03T15:34:03.644Z,13.00
2019-03-03T15:36:31.069Z,14.83
2019-03-03T15:38:58.490Z,13.77
2019-03-03T15:41:30.339Z,14.77
2019-03-03T15:43:58.896Z,13.23
2019-03-03T15:46:26.522Z,14.10
2019-03-03T15:48:54.170Z,15.30
2019-03-03T15:51:21.755Z,15.60
2019-03-03T15:53:49.252Z,15.03
2019-03-03T15:56:22.351Z,14.10
2019-03-03T15:58:55.687Z,15.67
2019-03-03T16:01:19.011Z,14.50
2019-03-03T16:03:46.508Z,13.80
2019-03-03T16:06:13.899Z,13.67
2019-03-03T16:08:41.251Z,12.53
2019-03-03T16:11:08.686Z,11.13
2019-03-03T16:13:36.191Z,12.60
2019-03-03T16:16:03.680Z,11.67
2019-03-03T16:18:31.125Z,11.47
2019-03-03T16:20:58.668Z,11.97
2019-03-03T16:23:26.088Z,11.20
2019-03-03T16:25:53.802Z,10.90
2019-03-03T16:28:21.304Z,10.43
2019-03-03T16:30:48.731Z,9.33
2019-03-03T16:33:20.452Z,9.43
2019-03-03T16:35:45.332Z,9.77
2019-03-03T16:38:12.677Z,11.03
2019-03-03T16:40:40.184Z,11.43
2019-03-03T16:43:07.684Z,12.07
2019-03-03T16:45:35.071Z,12.53
2019-03-03T16:48:02.468Z,12.77
2019-03-03T16:50:30.213Z,13.00
2019-03-03T16:52:57.546Z,13.00
2019-03-03T16:55:24.982Z,13.43
2019-03-03T16:57:52.560Z,14.03
2019-03-03T17:00:21.576Z,15.03
2019-03-03T17:02:48.913Z,16.10
2019-03-03T17:05:17.220Z,17.30
2019-03-03T17:07:44.857Z,19.00
2019-03-03T17:10:12.320Z,19.90
2019-03-03T17:12:39.763Z,18.77
2019-03-03T17:15:08.804Z,21.13
2019-03-03T17:17:36.207Z,22.07
2019-03-03T17:20:03.927Z,24.40
2019-03-03T17:22:31.374Z,26.27
2019-03-03T17:24:58.772Z,24.80
2019-03-03T17:27:26.127Z,24.57
2019-03-03T17:29:53.527Z,23.47
2019-03-03T17:32:20.871Z,23.07
2019-03-03T17:34:48.368Z,23.07
2019-03-03T17:37:15.782Z,21.40
2019-03-03T17:39:43.192Z,21.17
2019-03-03T17:42:10.614Z,20.57
2019-03-03T17:44:38.064Z,21.23
2019-03-03T17:47:05.457Z,20.97
2019-03-03T17:49:32.863Z,20.23
2019-03-03T17:52:00.598Z,18.47
2019-03-03T17:54:27.993Z,17.90
2019-03-03T17:56:55.385Z,17.50
2019-03-03T17:59:22.946Z,15.07
2019-03-03T18:01:50.361Z,14.03
2019-03-03T18:04:19.220Z,15.33
2019-03-03T18:06:46.575Z,14.60
2019-03-03T18:09:14.027Z,15.37
2019-03-03T18:11:41.989Z,17.00
2019-03-03T18:14:13.002Z,17.60
2019-03-03T18:16:40.396Z,16.00
2019-03-03T18:19:07.868Z,16.10
2019-03-03T18:21:35.301Z,16.77
2019-03-03T18:24:02.770Z,15.43
2019-03-03T18:26:30.188Z,16.30
2019-03-03T18:28:57.584Z,16.57
2019-03-03T18:31:25.033Z,16.33
2019-03-03T18:33:52.470Z,15.27
2019-03-03T18:36:19.913Z,18.00
2019-03-03T18:38:47.277Z,17.67
2019-03-03T18:41:14.628Z,15.27
2019-03-03T18:43:42.149Z,16.20
2019-03-03T18:46:09.637Z,14.20
2019-03-03T18:48:37.080Z,13.80
2019-03-03T18:51:05.045Z,13.17
2019-03-03T18:53:32.500Z,13.30
2019-03-03T18:55:59.988Z,13.90
2019-03-03T18:58:29.010Z,13.43
2019-03-03T19:00:56.394Z,11.80
2019-03-03T19:03:23.716Z,12.53
2019-03-03T19:05:55.695Z,12.10
2019-03-03T19:08:20.185Z,10.77
2019-03-03T19:10:47.652Z,12.10
2019-03-03T19:13:15.149Z,11.33
2019-03-03T19:15:47.107Z,11.23
2019-03-03T19:18:14.685Z,11.00
2019-03-03T19:20:42.136Z,10.63
2019-03-03T19:23:09.542Z,10.63
2019-03-03T19:25:37.027Z,10.63
2019-03-03T19:28:04.463Z,10.33
2019-03-03T19:30:32.159Z,11.40
2019-03-03T19:33:13.510Z,11.70
2019-03-03T19:35:40.834Z,10.40
2019-03-03T19:38:10.093Z,12.10
2019-03-03T19:40:37.689Z,11.77
2019-03-03T19:43:05.194Z,11.97
2019-03-03T19:45:39.749Z,11.00
2019-03-03T19:48:08.893Z,11.33
2019-03-03T19:50:36.219Z,10.37
2019-03-03T19:53:03.819Z,10.80
2019-03-03T19:55:31.262Z,11.50
2019-03-03T19:57:58.822Z,11.33
2019-03-03T20:00:36.744Z,11.10
2019-03-03T20:03:03.256Z,11.83
2019-03-03T20:05:30.734Z,10.90
2019-03-03T20:07:58.226Z,10.47
2019-03-03T20:10:25.739Z,10.07
2019-03-03T20:12:53.194Z,11.07
2019-03-03T20:15:20.662Z,10.77
2019-03-03T20:17:48.103Z,10.77
2019-03-03T20:20:21.396Z,10.77
2019-03-03T20:22:48.790Z,10.57
2019-03-03T20:25:16.180Z,11.70
2019-03-03T20:27:44.083Z,12.60
2019-03-03T20:30:21.113Z,11.53
2019-03-03T20:32:48.602Z,10.90
2019-03-03T20:35:16.245Z,9.90
2019-03-03T20:37:43.705Z,10.23
2019-03-03T20:40:12.752Z,9.63
2019-03-03T20:42:40.297Z,9.57
2019-03-03T20:45:12.367Z,10.20
2019-03-03T20:47:39.662Z,10.27
2019-03-03T20:50:11.448Z,9.50
2019-03-03T20:52:39.402Z,8.20
2019-03-03T20:55:08.484Z,9.40
2019-03-03T20:57:36.514Z,10.10
2019-03-03T21:00:05.615Z,9.13
2019-03-03T21:02:33.043Z,9.33
2019-03-03T21:05:00.577Z,9.37
2019-03-03T21:07:27.987Z,9.77
2019-03-03T21:09:55.418Z,9.57
2019-03-03T21:12:24.523Z,9.60
2019-03-03T21:14:52.032Z,10.67
2019-03-03T21:17:19.459Z,11.40
2019-03-03T21:19:46.922Z,11.67
2019-03-03T21:22:14.500Z,11.53
2019-03-03T21:24:41.886Z,11.33
2019-03-03T21:27:09.427Z,10.27
2019-03-03T21:29:36.716Z,11.07
2019-03-03T21:32:04.191Z,12.27
2019-03-03T21:34:31.614Z,12.20
2019-03-03T21:36:58.937Z,11.83
2019-03-03T21:39:26.357Z,11.47
2019-03-03T21:41:53.773Z,13.27
2019-03-03T21:44:21.188Z,12.10
2019-03-03T21:46:51.719Z,11.60
2019-03-03T21:49:19.322Z,11.57
2019-03-03T21:51:46.788Z,10.80
2019-03-03T21:54:14.121Z,10.60
2019-03-03T21:56:41.525Z,10.87
2019-03-03T21:59:08.896Z,11.13
2019-03-03T22:01:36.226Z,11.47
2019-03-03T22:04:03.671Z,11.07
2019-03-03T22:06:31.131Z,11.43
2019-03-03T22:08:58.612Z,12.20
2019-03-03T22:11:25.967Z,11.20
2019-03-03T22:13:53.405Z,11.87
2019-03-03T22:16:20.830Z,10.17
2019-03-03T22:18:48.376Z,9.73
2019-03-03T22:21:15.808Z,10.33
2019-03-03T22:23:43.307Z,9.20
2019-03-03T22:26:10.826Z,9.20
2019-03-03T22:28:38.187Z,8.60
2019-03-03T22:31:05.647Z,9.10
2019-03-03T22:33:33.093Z,9.07
2019-03-03T22:36:00.517Z,8.83
2019-03-03T22:38:27.943Z,9.03
2019-03-03T22:40:55.365Z,8.50
2019-03-03T22:43:22.734Z,8.17
2019-03-03T22:45:50.250Z,7.20
2019-03-03T22:48:17.715Z,7.63
2019-03-03T22:50:45.175Z,8.37
2019-03-03T22:53:13.049Z,8.13
2019-03-03T22:55:40.622Z,7.80
2019-03-03T22:58:08.217Z,8.10
2019-03-03T23:00:50.634Z,8.63
2019-03-03T23:03:22.757Z,9.20
2019-03-03T23:05:51.822Z,8.43
2019-03-03T23:08:20.834Z,7.80
2019-03-03T23:10:52.892Z,9.13
2019-03-03T23:13:21.951Z,9.73
2019-03-03T23:16:07.475Z,8.40
2019-03-03T23:18:45.775Z,8.93
2019-03-03T23:21:33.219Z,7.77
2019-03-03T23:24:17.643Z,7.43
2019-03-03T23:26:45.187Z,7.50
2019-03-03T23:29:12.697Z,8.23
2019-03-03T23:31:40.187Z,8.33
2019-03-03T23:34:07.679Z,7.90
2019-03-03T23:36:35.235Z,6.67
2019-03-03T23:39:02.727Z,7.37
2019-03-03T23:41:30.193Z,6.23
2019-03-03T23:43:57.642Z,6.97
2019-03-03T23:46:25.159Z,6.30
2019-03-03T23:48:52.611Z,5.80
2019-03-03T23:51:19.963Z,5.60
2019-03-03T23:53:47.469Z,5.73
2019-03-03T23:56:14.993Z,6.27
2019-03-03T23:58:42.529Z,5.23
